createdAt,value
2022-12-14T00:00:07.455Z,0
2022-12-14T00:01:07.733Z,0
2022-12-14T00:02:07.617Z,0
2022-12-14T00:03:08.287Z,0
2022-12-14T00:04:07.443Z,0
2022-12-14T00:05:07.437Z,0
2022-12-14T00:06:07.451Z,0
2022-12-14T00:07:10.257Z,0
2022-12-14T00:08:07.499Z,0
2022-12-14T00:09:07.489Z,0
2022-12-14T00:10:07.434Z,0
2022-12-14T00:11:07.497Z,0
2022-12-14T00:12:10.451Z,0
2022-12-14T00:13:07.485Z,0
2022-12-14T00:14:07.478Z,0
2022-12-14T00:15:07.571Z,0
2022-12-14T00:16:08.063Z,0
2022-12-14T00:17:07.461Z,0
2022-12-14T00:18:10.390Z,0
2022-12-14T00:19:07.490Z,0
2022-12-14T00:20:07.454Z,0
2022-12-14T00:21:07.478Z,0
2022-12-14T00:22:07.478Z,0
2022-12-14T00:23:10.595Z,0
2022-12-14T00:24:07.490Z,0
2022-12-14T00:25:07.551Z,0
2022-12-14T00:26:07.439Z,0
2022-12-14T00:27:07.470Z,0
2022-12-14T00:28:08.007Z,0
2022-12-14T00:29:10.570Z,0
2022-12-14T00:30:07.526Z,0
2022-12-14T00:31:08.265Z,0
2022-12-14T00:32:07.458Z,0
2022-12-14T00:33:07.478Z,0
2022-12-14T00:34:11.630Z,0
2022-12-14T00:35:07.631Z,0
2022-12-14T00:36:07.509Z,0
2022-12-14T00:37:07.466Z,0
2022-12-14T00:38:07.512Z,0
2022-12-14T00:39:07.606Z,0
2022-12-14T00:40:10.243Z,0
2022-12-14T00:41:07.482Z,0
2022-12-14T00:42:10.650Z,0
2022-12-14T00:43:07.535Z,0
2022-12-14T00:44:07.500Z,0
2022-12-14T00:45:10.307Z,0
2022-12-14T00:46:08.096Z,0
2022-12-14T00:47:07.527Z,0
2022-12-14T00:48:07.515Z,0
2022-12-14T00:49:07.480Z,0
2022-12-14T00:50:10.572Z,0
2022-12-14T00:51:07.544Z,0
2022-12-14T00:52:07.516Z,0
2022-12-14T00:53:07.508Z,0
2022-12-14T00:54:07.541Z,0
2022-12-14T00:55:07.553Z,0
2022-12-14T00:56:10.511Z,0
2022-12-14T00:57:07.525Z,0
2022-12-14T00:58:07.547Z,0
2022-12-14T00:59:07.562Z,0
2022-12-14T01:00:07.611Z,0
2022-12-14T01:01:10.687Z,0
2022-12-14T01:02:11.577Z,0
2022-12-14T01:03:07.545Z,0
2022-12-14T01:04:08.089Z,0
2022-12-14T01:05:07.524Z,0
2022-12-14T01:06:07.556Z,0
2022-12-14T01:07:10.425Z,0
2022-12-14T01:08:07.534Z,0
2022-12-14T01:09:07.532Z,0
2022-12-14T01:10:07.536Z,0
2022-12-14T01:11:07.587Z,0
2022-12-14T01:12:10.711Z,0
2022-12-14T01:13:07.550Z,0
2022-12-14T01:14:07.525Z,0
2022-12-14T01:15:07.517Z,0
2022-12-14T01:16:10.819Z,0
2022-12-14T01:17:07.548Z,0
2022-12-14T01:18:10.714Z,0
2022-12-14T01:19:07.743Z,0
2022-12-14T01:20:08.566Z,0
2022-12-14T01:21:07.553Z,0
2022-12-14T01:22:07.544Z,0
2022-12-14T01:23:10.622Z,0
2022-12-14T01:24:07.568Z,0
2022-12-14T01:25:07.550Z,0
2022-12-14T01:26:07.582Z,0
2022-12-14T01:27:07.600Z,0
2022-12-14T01:28:07.595Z,0
2022-12-14T01:29:10.569Z,0
2022-12-14T01:30:07.564Z,0
2022-12-14T01:31:07.907Z,0
2022-12-14T01:32:07.597Z,0
2022-12-14T01:33:07.613Z,0
2022-12-14T01:34:10.662Z,0
2022-12-14T01:35:07.552Z,0
2022-12-14T01:36:07.571Z,0
2022-12-14T01:37:07.570Z,0
2022-12-14T01:38:07.985Z,0
2022-12-14T01:39:07.579Z,0
2022-12-14T01:40:10.441Z,0
2022-12-14T01:41:07.610Z,0
2022-12-14T01:42:07.577Z,0
2022-12-14T01:43:07.636Z,0
2022-12-14T01:44:07.568Z,0
2022-12-14T01:45:10.617Z,0
2022-12-14T01:46:07.891Z,0
2022-12-14T01:47:15.305Z,0
2022-12-14T01:48:07.670Z,0
2022-12-14T01:49:07.638Z,0
2022-12-14T01:50:07.640Z,0
2022-12-14T01:51:10.653Z,0
2022-12-14T01:52:07.596Z,0
2022-12-14T01:53:07.590Z,0
2022-12-14T01:54:07.608Z,0
2022-12-14T01:55:07.592Z,0
2022-12-14T01:56:10.641Z,0
2022-12-14T01:57:07.615Z,0
2022-12-14T01:58:07.636Z,0
2022-12-14T01:59:07.732Z,0
2022-12-14T02:00:14.645Z,0
2022-12-14T02:01:07.673Z,0
2022-12-14T02:02:08.316Z,0
2022-12-14T02:03:08.278Z,0
2022-12-14T02:04:07.610Z,0
2022-12-14T02:05:07.670Z,0
2022-12-14T02:06:07.671Z,0
2022-12-14T02:07:11.520Z,0
2022-12-14T02:08:07.624Z,0
2022-12-14T02:09:07.613Z,0
2022-12-14T02:10:07.636Z,0
2022-12-14T02:11:07.617Z,0
2022-12-14T02:12:07.592Z,0
2022-12-14T02:13:07.641Z,0
2022-12-14T02:14:07.623Z,0
2022-12-14T02:15:07.655Z,0
2022-12-14T02:16:07.935Z,0
2022-12-14T02:17:07.631Z,0
2022-12-14T02:18:07.658Z,0
2022-12-14T02:19:07.625Z,0
2022-12-14T02:20:07.640Z,0
2022-12-14T02:21:07.785Z,0
2022-12-14T02:22:07.728Z,0
2022-12-14T02:23:10.705Z,0
2022-12-14T02:24:07.651Z,0
2022-12-14T02:25:07.673Z,0
2022-12-14T02:26:07.701Z,0
2022-12-14T02:27:07.682Z,0
2022-12-14T02:28:07.649Z,0
2022-12-14T02:29:07.674Z,0
2022-12-14T02:30:07.706Z,0
2022-12-14T02:31:08.030Z,0
2022-12-14T02:32:07.638Z,0
2022-12-14T02:33:07.626Z,0
2022-12-14T02:34:10.804Z,0
2022-12-14T02:35:07.657Z,0
2022-12-14T02:36:07.715Z,0
2022-12-14T02:37:07.840Z,0
2022-12-14T02:38:07.753Z,0
2022-12-14T02:39:13.955Z,0
2022-12-14T02:40:07.679Z,0
2022-12-14T02:41:07.673Z,0
2022-12-14T02:42:07.703Z,0
2022-12-14T02:43:07.688Z,0
2022-12-14T02:44:07.728Z,0
2022-12-14T02:45:10.420Z,0
2022-12-14T02:46:07.668Z,0
2022-12-14T02:47:08.097Z,0
2022-12-14T02:48:07.685Z,0
2022-12-14T02:49:07.819Z,0
2022-12-14T02:50:07.923Z,0
2022-12-14T02:51:07.754Z,0
2022-12-14T02:52:07.677Z,0
2022-12-14T02:53:07.716Z,0
2022-12-14T02:54:07.770Z,0
2022-12-14T02:55:07.690Z,0
2022-12-14T02:56:10.765Z,0
2022-12-14T02:57:07.735Z,0
2022-12-14T02:58:07.723Z,0
2022-12-14T02:59:07.768Z,0
2022-12-14T03:00:07.701Z,0
2022-12-14T03:01:11.126Z,0
2022-12-14T03:02:08.925Z,0
2022-12-14T03:03:08.402Z,0
2022-12-14T03:04:07.740Z,0
2022-12-14T03:05:07.985Z,0
2022-12-14T03:06:07.705Z,0
2022-12-14T03:07:10.860Z,0
2022-12-14T03:08:07.717Z,0
2022-12-14T03:09:07.765Z,0
2022-12-14T03:10:07.765Z,0
2022-12-14T03:11:07.750Z,0
2022-12-14T03:12:10.832Z,0
2022-12-14T03:13:07.718Z,0
2022-12-14T03:14:07.756Z,0
2022-12-14T03:15:07.764Z,0
2022-12-14T03:16:08.129Z,0
2022-12-14T03:17:12.473Z,0
2022-12-14T03:18:07.728Z,0
2022-12-14T03:19:07.789Z,0
2022-12-14T03:20:07.748Z,0
2022-12-14T03:21:07.738Z,0
2022-12-14T03:22:07.812Z,0
2022-12-14T03:23:10.579Z,0
2022-12-14T03:24:07.780Z,0
2022-12-14T03:25:07.793Z,0
2022-12-14T03:26:07.774Z,0
2022-12-14T03:27:07.750Z,0
2022-12-14T03:28:10.848Z,0
2022-12-14T03:29:07.793Z,0
2022-12-14T03:30:07.784Z,0
2022-12-14T03:31:09.994Z,0
2022-12-14T03:32:07.907Z,0
2022-12-14T03:33:07.736Z,0
2022-12-14T03:34:17.887Z,0
2022-12-14T03:35:07.747Z,0
2022-12-14T03:36:07.730Z,0
2022-12-14T03:37:08.805Z,0
2022-12-14T03:38:07.743Z,0
2022-12-14T03:39:09.739Z,0
2022-12-14T03:40:07.765Z,0
2022-12-14T03:41:07.766Z,0
2022-12-14T03:42:07.805Z,0
2022-12-14T03:43:07.741Z,0
2022-12-14T03:44:07.799Z,0
2022-12-14T03:45:10.787Z,0
2022-12-14T03:46:08.074Z,0
2022-12-14T03:47:07.825Z,0
2022-12-14T03:48:07.784Z,0
2022-12-14T03:49:07.798Z,0
2022-12-14T03:50:10.874Z,0
2022-12-14T03:51:07.765Z,0
2022-12-14T03:52:07.761Z,0
2022-12-14T03:53:07.824Z,0
2022-12-14T03:54:08.360Z,0
2022-12-14T03:55:07.835Z,0
2022-12-14T03:56:16.838Z,0
2022-12-14T03:57:07.807Z,0
2022-12-14T03:58:07.831Z,0
2022-12-14T03:59:07.823Z,0
2022-12-14T04:00:08.857Z,0
2022-12-14T04:01:11.184Z,0
2022-12-14T04:02:14.616Z,0
2022-12-14T04:03:08.249Z,0
2022-12-14T04:04:07.835Z,0
2022-12-14T04:05:07.791Z,0
2022-12-14T04:06:07.828Z,0
2022-12-14T04:07:10.790Z,0
2022-12-14T04:08:07.790Z,0
2022-12-14T04:09:08.157Z,0
2022-12-14T04:10:07.788Z,0
2022-12-14T04:11:07.864Z,0
2022-12-14T04:12:10.889Z,0
2022-12-14T04:13:07.824Z,0
2022-12-14T04:14:07.883Z,0
2022-12-14T04:15:07.826Z,0
2022-12-14T04:16:07.949Z,0
2022-12-14T04:17:07.850Z,0
2022-12-14T04:18:10.834Z,0
2022-12-14T04:19:09.418Z,0
2022-12-14T04:20:07.821Z,0
2022-12-14T04:21:07.841Z,0
2022-12-14T04:22:07.837Z,0
2022-12-14T04:23:10.803Z,0
2022-12-14T04:24:07.859Z,0
2022-12-14T04:25:07.819Z,0
2022-12-14T04:26:07.806Z,0
2022-12-14T04:27:07.830Z,0
2022-12-14T04:28:07.835Z,0
2022-12-14T04:29:07.873Z,0
2022-12-14T04:30:08.917Z,0
2022-12-14T04:31:07.861Z,0
2022-12-14T04:32:08.524Z,0
2022-12-14T04:33:07.974Z,0
2022-12-14T04:34:10.923Z,0
2022-12-14T04:35:07.834Z,0
2022-12-14T04:36:07.854Z,0
2022-12-14T04:37:07.828Z,0
2022-12-14T04:38:10.845Z,0
2022-12-14T04:39:07.881Z,0
2022-12-14T04:40:07.860Z,0
2022-12-14T04:41:07.867Z,0
2022-12-14T04:42:07.869Z,0
2022-12-14T04:43:07.860Z,0
2022-12-14T04:44:07.872Z,0
2022-12-14T04:45:07.959Z,0
2022-12-14T04:46:08.468Z,0
2022-12-14T04:47:07.845Z,0
2022-12-14T04:48:07.853Z,0
2022-12-14T04:49:07.889Z,0
2022-12-14T04:50:10.646Z,0
2022-12-14T04:51:07.850Z,0
2022-12-14T04:52:14.374Z,0
2022-12-14T04:53:07.856Z,0
2022-12-14T04:54:07.920Z,0
2022-12-14T04:55:07.894Z,0
2022-12-14T04:56:07.870Z,0
2022-12-14T04:57:07.872Z,0
2022-12-14T04:58:07.904Z,0
2022-12-14T04:59:07.905Z,0
2022-12-14T05:00:07.893Z,0
2022-12-14T05:01:11.558Z,0
2022-12-14T05:02:09.227Z,0
2022-12-14T05:03:08.315Z,0
2022-12-14T05:04:15.224Z,0
2022-12-14T05:05:07.917Z,0
2022-12-14T05:06:10.885Z,0
2022-12-14T05:07:07.869Z,0
2022-12-14T05:08:07.897Z,0
2022-12-14T05:09:07.956Z,0
2022-12-14T05:10:10.933Z,0
2022-12-14T05:12:00.352Z,0
2022-12-14T05:13:09.854Z,0
2022-12-14T05:14:09.863Z,0
2022-12-14T05:15:09.892Z,0
2022-12-14T05:16:09.858Z,0
2022-12-14T05:17:18.107Z,0
2022-12-14T05:18:09.864Z,0
2022-12-14T05:19:09.880Z,0
2022-12-14T05:20:09.897Z,0
2022-12-14T05:21:09.867Z,0
2022-12-14T05:22:09.869Z,0
2022-12-14T05:23:12.902Z,0
2022-12-14T05:24:09.868Z,0
2022-12-14T05:25:09.895Z,0
2022-12-14T05:26:09.910Z,0
2022-12-14T05:27:09.898Z,0
2022-12-14T05:28:12.900Z,0
2022-12-14T05:29:09.880Z,0
2022-12-14T05:30:09.932Z,0
2022-12-14T05:31:10.150Z,0
2022-12-14T05:32:09.877Z,0
2022-12-14T05:33:09.981Z,0
2022-12-14T05:34:12.899Z,0
2022-12-14T05:35:09.871Z,0
2022-12-14T05:36:09.944Z,0
2022-12-14T05:37:23.952Z,0
2022-12-14T05:38:09.874Z,0
2022-12-14T05:39:12.829Z,0
2022-12-14T05:40:09.922Z,0
2022-12-14T05:41:09.897Z,0
2022-12-14T05:42:09.999Z,0
2022-12-14T05:43:09.934Z,0
2022-12-14T05:44:09.880Z,0
2022-12-14T05:45:13.105Z,0
2022-12-14T05:46:10.442Z,0
2022-12-14T05:47:09.912Z,0
2022-12-14T05:48:09.727Z,0
2022-12-14T05:49:10.069Z,0
2022-12-14T05:50:13.010Z,0
2022-12-14T05:51:09.957Z,0
2022-12-14T05:52:09.932Z,0
2022-12-14T05:53:09.909Z,0
2022-12-14T05:54:09.918Z,0
2022-12-14T05:55:13.676Z,0
2022-12-14T05:56:12.642Z,0
2022-12-14T05:57:09.938Z,0
2022-12-14T05:58:09.969Z,0
2022-12-14T05:59:09.946Z,0
2022-12-14T06:00:09.971Z,0
2022-12-14T06:01:21.812Z,0
2022-12-14T06:02:11.036Z,0
2022-12-14T06:03:10.269Z,0
2022-12-14T06:04:10.247Z,0
2022-12-14T06:05:13.109Z,0
2022-12-14T06:06:09.935Z,0
2022-12-14T06:07:12.947Z,0
2022-12-14T06:08:09.945Z,0
2022-12-14T06:09:09.929Z,0
2022-12-14T06:10:09.788Z,0
2022-12-14T06:11:09.953Z,0
2022-12-14T06:12:12.793Z,0
2022-12-14T06:13:09.926Z,0
2022-12-14T06:14:09.991Z,0
2022-12-14T06:15:10.800Z,0
2022-12-14T06:16:10.162Z,0
2022-12-14T06:17:09.957Z,0
2022-12-14T06:18:12.970Z,0
2022-12-14T06:19:09.983Z,0
2022-12-14T06:20:09.979Z,0
2022-12-14T06:21:10.100Z,0
2022-12-14T06:22:09.969Z,0
2022-12-14T06:23:12.969Z,0
2022-12-14T06:24:13.490Z,0
2022-12-14T06:25:10.097Z,0
2022-12-14T06:26:09.956Z,0
2022-12-14T06:27:09.976Z,0
2022-12-14T06:28:12.968Z,0
2022-12-14T06:29:09.957Z,0
2022-12-14T06:30:10.014Z,0
2022-12-14T06:31:10.241Z,0
2022-12-14T06:32:09.986Z,0
2022-12-14T06:33:09.950Z,0
2022-12-14T06:34:13.158Z,0
2022-12-14T06:35:10.006Z,0
2022-12-14T06:36:09.999Z,0
2022-12-14T06:37:10.045Z,0
2022-12-14T06:38:09.977Z,0
2022-12-14T06:39:13.097Z,0
2022-12-14T06:40:10.009Z,0
2022-12-14T06:41:09.983Z,0
2022-12-14T06:42:09.982Z,0
2022-12-14T06:43:09.991Z,0
2022-12-14T06:44:09.879Z,0
2022-12-14T06:45:12.900Z,0
2022-12-14T06:46:18.253Z,0
2022-12-14T06:47:10.053Z,0
2022-12-14T06:48:09.989Z,0
2022-12-14T06:49:09.832Z,0
2022-12-14T06:50:11.779Z,0
2022-12-14T06:51:09.997Z,0
2022-12-14T06:52:11.056Z,0
2022-12-14T06:53:10.102Z,0
2022-12-14T06:54:10.116Z,0
2022-12-14T06:55:10.320Z,0
2022-12-14T06:56:10.052Z,0
2022-12-14T06:57:10.024Z,0
2022-12-14T06:58:09.989Z,0
2022-12-14T06:59:10.208Z,0
2022-12-14T07:00:10.041Z,0
2022-12-14T07:01:13.834Z,0
2022-12-14T07:02:10.848Z,0
2022-12-14T07:03:10.982Z,0
2022-12-14T07:04:10.042Z,0
2022-12-14T07:05:10.039Z,0
2022-12-14T07:06:10.016Z,0
2022-12-14T07:07:10.006Z,0
2022-12-14T07:08:10.026Z,0
2022-12-14T07:09:11.278Z,0
2022-12-14T07:10:10.088Z,0
2022-12-14T07:11:11.855Z,0
2022-12-14T07:12:10.052Z,0
2022-12-14T07:13:10.064Z,0
2022-12-14T07:14:10.038Z,0
2022-12-14T07:15:10.052Z,0
2022-12-14T07:16:10.466Z,0
2022-12-14T07:17:13.182Z,0
2022-12-14T07:18:10.039Z,0
2022-12-14T07:19:10.033Z,0
2022-12-14T07:20:10.061Z,0
2022-12-14T07:21:10.041Z,0
2022-12-14T07:22:10.052Z,0
2022-12-14T07:23:10.052Z,0
2022-12-14T07:24:10.050Z,0
2022-12-14T07:25:10.143Z,0
2022-12-14T07:26:10.058Z,0
2022-12-14T07:27:10.293Z,0
2022-12-14T07:28:13.172Z,0
2022-12-14T07:29:10.054Z,0
2022-12-14T07:30:10.106Z,0
2022-12-14T07:31:10.601Z,0
2022-12-14T07:32:10.076Z,0
2022-12-14T07:33:13.911Z,0
2022-12-14T07:34:10.916Z,0
2022-12-14T07:35:17.086Z,0
2022-12-14T07:36:10.049Z,0
2022-12-14T07:37:10.055Z,0
2022-12-14T07:38:10.127Z,0
2022-12-14T07:39:12.857Z,0
2022-12-14T07:40:10.094Z,0
2022-12-14T07:41:10.550Z,0
2022-12-14T07:42:09.922Z,0
2022-12-14T07:43:10.086Z,0
2022-12-14T07:44:12.375Z,0
2022-12-14T07:45:10.121Z,0
2022-12-14T07:46:10.621Z,0
2022-12-14T07:47:16.337Z,0
2022-12-14T07:48:10.083Z,0
2022-12-14T07:49:10.337Z,0
2022-12-14T07:50:12.981Z,0
2022-12-14T07:51:10.496Z,0
2022-12-14T07:52:10.090Z,0
2022-12-14T07:53:10.095Z,0
2022-12-14T07:54:10.112Z,0
2022-12-14T07:55:11.488Z,0
2022-12-14T07:56:10.497Z,0
2022-12-14T07:57:10.199Z,0
2022-12-14T07:58:10.150Z,0
2022-12-14T07:59:10.095Z,0
2022-12-14T08:00:10.138Z,0
2022-12-14T08:01:13.269Z,0
2022-12-14T08:02:12.077Z,0
2022-12-14T08:03:10.113Z,0
2022-12-14T08:04:11.470Z,0
2022-12-14T08:05:20.204Z,0
2022-12-14T08:06:13.065Z,0
2022-12-14T08:07:10.121Z,0
2022-12-14T08:08:10.131Z,0
2022-12-14T08:09:10.194Z,0
2022-12-14T08:10:10.201Z,0
2022-12-14T08:11:13.359Z,0
2022-12-14T08:12:13.161Z,0
2022-12-14T08:13:10.268Z,0
2022-12-14T08:14:10.129Z,0
2022-12-14T08:15:10.180Z,0
2022-12-14T08:16:10.976Z,0
2022-12-14T08:17:12.906Z,0
2022-12-14T08:18:10.122Z,0
2022-12-14T08:19:10.171Z,0
2022-12-14T08:20:10.124Z,0
2022-12-14T08:21:10.472Z,0
2022-12-14T08:22:10.194Z,0
2022-12-14T08:23:12.958Z,0
2022-12-14T08:24:10.138Z,0
2022-12-14T08:25:10.145Z,0
2022-12-14T08:26:10.452Z,5
2022-12-14T08:27:10.280Z,5
2022-12-14T08:28:13.087Z,5
2022-12-14T08:29:10.181Z,5
2022-12-14T08:30:10.150Z,5
2022-12-14T08:31:11.013Z,5
2022-12-14T08:32:10.161Z,5
2022-12-14T08:33:10.171Z,5
2022-12-14T08:34:13.303Z,5
2022-12-14T08:35:10.196Z,5
2022-12-14T08:36:10.505Z,5
2022-12-14T08:37:10.188Z,5
2022-12-14T08:38:12.890Z,5
2022-12-14T08:39:12.989Z,5
2022-12-14T08:40:10.216Z,5
2022-12-14T08:41:10.484Z,5
2022-12-14T08:42:10.202Z,5
2022-12-14T08:43:10.192Z,5
2022-12-14T08:44:10.298Z,5
2022-12-14T08:45:13.030Z,5
2022-12-14T08:46:10.310Z,5
2022-12-14T08:47:10.707Z,5
2022-12-14T08:48:10.206Z,5
2022-12-14T08:49:10.211Z,5
2022-12-14T08:50:13.224Z,5
2022-12-14T08:51:10.263Z,10
2022-12-14T08:52:10.189Z,10
2022-12-14T08:53:10.271Z,10
2022-12-14T08:54:10.220Z,10
2022-12-14T08:55:13.312Z,15
2022-12-14T08:56:13.250Z,15
2022-12-14T08:57:10.211Z,15
2022-12-14T08:58:10.207Z,15
2022-12-14T08:59:19.761Z,10
2022-12-14T09:00:11.637Z,10
2022-12-14T09:01:13.967Z,10
2022-12-14T09:02:11.169Z,5
2022-12-14T09:03:10.966Z,5
2022-12-14T09:04:10.850Z,5
2022-12-14T09:05:10.215Z,5
2022-12-14T09:06:11.812Z,5
2022-12-14T09:07:10.225Z,5
2022-12-14T09:08:10.204Z,5
2022-12-14T09:09:19.004Z,5
2022-12-14T09:10:10.268Z,0
2022-12-14T09:11:10.258Z,0
2022-12-14T09:12:13.338Z,0
2022-12-14T09:13:10.240Z,0
2022-12-14T09:14:10.250Z,0
2022-12-14T09:15:10.226Z,0
2022-12-14T09:16:10.774Z,5
2022-12-14T09:17:13.267Z,5
2022-12-14T09:18:10.203Z,5
2022-12-14T09:19:10.240Z,5
2022-12-14T09:20:10.238Z,5
2022-12-14T09:21:10.281Z,5
2022-12-14T09:22:10.676Z,5
2022-12-14T09:23:10.277Z,5
2022-12-14T09:24:10.217Z,5
2022-12-14T09:25:10.261Z,5
2022-12-14T09:26:10.320Z,5
2022-12-14T09:27:10.240Z,5
2022-12-14T09:28:13.335Z,5
2022-12-14T09:29:10.282Z,5
2022-12-14T09:30:10.253Z,5
2022-12-14T09:31:10.375Z,5
2022-12-14T09:32:10.549Z,5
2022-12-14T09:33:10.283Z,5
2022-12-14T09:34:10.273Z,5
2022-12-14T09:35:10.283Z,5
2022-12-14T09:36:10.291Z,5
2022-12-14T09:37:10.260Z,5
2022-12-14T09:38:10.305Z,5
2022-12-14T09:39:10.276Z,5
2022-12-14T09:40:10.288Z,5
2022-12-14T09:41:14.151Z,5
2022-12-14T09:42:10.636Z,5
2022-12-14T09:43:10.257Z,0
2022-12-14T09:44:21.491Z,0
2022-12-14T09:45:10.293Z,0
2022-12-14T09:46:10.654Z,0
2022-12-14T09:47:10.297Z,0
2022-12-14T09:48:10.299Z,0
2022-12-14T09:49:10.280Z,0
2022-12-14T09:50:10.291Z,0
2022-12-14T09:51:10.756Z,0
2022-12-14T09:52:10.269Z,0
2022-12-14T09:53:13.257Z,0
2022-12-14T09:54:12.062Z,0
2022-12-14T09:55:13.337Z,0
2022-12-14T09:56:10.300Z,0
2022-12-14T09:57:10.346Z,0
2022-12-14T09:58:10.281Z,0
2022-12-14T09:59:10.299Z,0
2022-12-14T10:00:13.283Z,0
2022-12-14T10:01:10.758Z,0
2022-12-14T10:02:41.842Z,0
2022-12-14T10:03:16.677Z,0
2022-12-14T10:04:11.289Z,0
2022-12-14T10:05:10.335Z,0
2022-12-14T10:06:13.416Z,0
2022-12-14T10:07:10.318Z,0
2022-12-14T10:08:10.319Z,0
2022-12-14T10:09:10.326Z,0
2022-12-14T10:10:10.323Z,0
2022-12-14T10:11:13.378Z,0
2022-12-14T10:12:10.331Z,0
2022-12-14T10:13:10.326Z,0
2022-12-14T10:14:10.361Z,0
2022-12-14T10:15:10.371Z,5
2022-12-14T10:16:10.736Z,5
2022-12-14T10:17:13.810Z,5
2022-12-14T10:19:13.960Z,5
2022-12-14T10:20:10.344Z,5
2022-12-14T10:21:10.389Z,10
2022-12-14T10:22:13.247Z,10
2022-12-14T10:23:10.459Z,10
2022-12-14T10:24:10.345Z,10
2022-12-14T10:25:10.340Z,10
2022-12-14T10:26:10.370Z,15
2022-12-14T10:27:10.354Z,15
2022-12-14T10:28:20.365Z,15
2022-12-14T10:29:11.091Z,20
2022-12-14T10:30:10.369Z,20
2022-12-14T10:31:10.423Z,20
2022-12-14T10:32:10.997Z,20
2022-12-14T10:33:13.452Z,20
2022-12-14T10:34:19.708Z,20
2022-12-14T10:35:10.353Z,20
2022-12-14T10:36:10.389Z,20
2022-12-14T10:37:10.375Z,20
2022-12-14T10:38:10.363Z,25
2022-12-14T10:39:19.552Z,20
2022-12-14T10:40:38.418Z,20
2022-12-14T10:41:10.399Z,20
2022-12-14T10:42:10.348Z,20
2022-12-14T10:43:10.438Z,20
2022-12-14T10:44:16.474Z,20
2022-12-14T10:45:50.060Z,25
2022-12-14T10:46:19.428Z,25
2022-12-14T10:47:10.663Z,25
2022-12-14T10:48:10.393Z,25
2022-12-14T10:49:10.457Z,25
2022-12-14T10:50:13.473Z,20
2022-12-14T10:51:10.374Z,20
2022-12-14T10:52:10.405Z,20
2022-12-14T10:53:10.393Z,20
2022-12-14T10:54:10.424Z,20
2022-12-14T10:55:13.495Z,20
2022-12-14T10:56:10.822Z,20
2022-12-14T10:57:10.744Z,20
2022-12-14T10:58:10.490Z,20
2022-12-14T10:59:10.369Z,20
2022-12-14T11:00:28.158Z,20
2022-12-14T11:01:13.634Z,20
2022-12-14T11:02:11.990Z,25
2022-12-14T11:03:11.223Z,20
2022-12-14T11:04:10.450Z,20
2022-12-14T11:05:10.389Z,20
2022-12-14T11:06:13.260Z,25
2022-12-14T11:07:10.423Z,30
2022-12-14T11:08:10.419Z,35
2022-12-14T11:09:10.399Z,30
2022-12-14T11:10:10.414Z,25
2022-12-14T11:11:14.075Z,25
2022-12-14T11:12:13.946Z,25
2022-12-14T11:13:10.407Z,20
2022-12-14T11:14:10.405Z,20
2022-12-14T11:15:10.410Z,20
2022-12-14T11:16:10.489Z,15
2022-12-14T11:17:20.171Z,15
2022-12-14T11:18:11.422Z,15
2022-12-14T11:19:10.509Z,10
2022-12-14T11:20:10.427Z,10
2022-12-14T11:21:10.480Z,10
2022-12-14T11:22:10.911Z,10
2022-12-14T11:23:13.336Z,10
2022-12-14T11:24:10.425Z,10
2022-12-14T11:25:10.435Z,10
2022-12-14T11:26:10.428Z,10
2022-12-14T11:27:10.506Z,10
2022-12-14T11:28:13.575Z,10
2022-12-14T11:29:10.497Z,10
2022-12-14T11:30:10.475Z,10
2022-12-14T11:31:11.166Z,10
2022-12-14T11:32:10.454Z,10
2022-12-14T11:33:13.251Z,10
2022-12-14T11:34:10.463Z,10
2022-12-14T11:35:10.502Z,15
2022-12-14T11:36:10.447Z,15
2022-12-14T11:37:10.468Z,15
2022-12-14T11:38:10.451Z,15
2022-12-14T11:39:13.551Z,15
2022-12-14T11:40:10.452Z,15
2022-12-14T11:41:19.016Z,20
2022-12-14T11:42:10.497Z,20
2022-12-14T11:43:10.521Z,20
2022-12-14T11:44:13.306Z,20
2022-12-14T11:45:10.509Z,20
2022-12-14T11:46:10.838Z,20
2022-12-14T11:47:10.507Z,20
2022-12-14T11:48:10.520Z,20
2022-12-14T11:49:10.526Z,20
2022-12-14T11:50:10.433Z,20
2022-12-14T11:51:10.485Z,20
2022-12-14T11:52:10.523Z,20
2022-12-14T11:53:18.573Z,20
2022-12-14T11:54:10.470Z,20
2022-12-14T11:55:13.470Z,20
2022-12-14T11:56:10.461Z,20
2022-12-14T11:57:10.510Z,15
2022-12-14T11:58:10.452Z,15
2022-12-14T11:59:10.471Z,15
2022-12-14T12:00:10.542Z,15
2022-12-14T12:01:10.524Z,15
2022-12-14T12:02:11.168Z,15
2022-12-14T12:03:10.979Z,15
2022-12-14T12:04:10.989Z,15
2022-12-14T12:05:10.503Z,15
2022-12-14T12:06:13.286Z,20
2022-12-14T12:07:13.859Z,20
2022-12-14T12:08:10.509Z,20
2022-12-14T12:09:10.504Z,20
2022-12-14T12:10:10.526Z,20
2022-12-14T12:11:14.680Z,20
2022-12-14T12:12:10.555Z,20
2022-12-14T12:13:10.514Z,20
2022-12-14T12:14:10.510Z,20
2022-12-14T12:15:10.778Z,20
2022-12-14T12:16:10.907Z,20
2022-12-14T12:17:10.611Z,15
2022-12-14T12:18:10.504Z,15
2022-12-14T12:19:19.315Z,15
2022-12-14T12:20:10.612Z,15
2022-12-14T12:21:10.504Z,15
2022-12-14T12:22:11.052Z,15
2022-12-14T12:23:10.497Z,15
2022-12-14T12:24:10.529Z,15
2022-12-14T12:25:45.421Z,10
2022-12-14T12:26:10.510Z,10
2022-12-14T12:27:13.437Z,10
2022-12-14T12:28:10.536Z,10
2022-12-14T12:29:10.438Z,15
2022-12-14T12:30:10.567Z,15
2022-12-14T12:31:18.023Z,15
2022-12-14T12:32:10.547Z,15
2022-12-14T12:33:13.277Z,15
2022-12-14T12:34:10.519Z,15
2022-12-14T12:35:20.377Z,15
2022-12-14T12:36:10.509Z,15
2022-12-14T12:37:40.581Z,20
2022-12-14T12:38:13.699Z,20
2022-12-14T12:39:10.589Z,20
2022-12-14T12:40:10.644Z,20
2022-12-14T12:41:10.718Z,20
2022-12-14T12:42:14.613Z,20
2022-12-14T12:43:10.613Z,15
2022-12-14T12:44:13.707Z,15
2022-12-14T12:45:10.559Z,15
2022-12-14T12:46:11.013Z,15
2022-12-14T12:47:55.356Z,15
2022-12-14T12:48:10.926Z,15
2022-12-14T12:49:13.586Z,15
2022-12-14T12:50:10.687Z,15
2022-12-14T12:51:11.558Z,15
2022-12-14T12:52:10.739Z,15
2022-12-14T12:53:13.379Z,15
2022-12-14T12:54:10.586Z,15
2022-12-14T12:55:13.676Z,15
2022-12-14T12:56:10.615Z,15
2022-12-14T12:57:10.603Z,15
2022-12-14T12:58:13.459Z,15
2022-12-14T12:59:10.583Z,15
2022-12-14T13:00:13.511Z,15
2022-12-14T13:01:10.452Z,20
2022-12-14T13:02:11.270Z,20
2022-12-14T13:03:11.452Z,20
2022-12-14T13:04:10.611Z,20
2022-12-14T13:06:01.548Z,20
2022-12-14T13:07:11.026Z,20
2022-12-14T13:08:11.166Z,20
2022-12-14T13:09:11.266Z,20
2022-12-14T13:10:14.764Z,15
2022-12-14T13:11:41.086Z,15
2022-12-14T13:13:11.095Z,15
2022-12-14T13:14:11.059Z,15
2022-12-14T13:15:11.135Z,15
2022-12-14T13:16:11.396Z,15
2022-12-14T13:17:14.081Z,15
2022-12-14T13:18:12.401Z,15
2022-12-14T13:20:05.310Z,15
2022-12-14T13:21:14.806Z,15
2022-12-14T13:22:26.687Z,10
2022-12-14T13:23:52.133Z,10
2022-12-14T13:24:14.813Z,10
2022-12-14T13:25:14.655Z,10
2022-12-14T13:26:57.021Z,10
2022-12-14T13:27:22.751Z,10
2022-12-14T13:28:17.746Z,10
2022-12-14T13:29:14.822Z,10
2022-12-14T13:30:15.001Z,10
2022-12-14T13:31:15.007Z,10
2022-12-14T13:32:14.972Z,10
2022-12-14T13:33:15.960Z,10
2022-12-14T13:34:17.611Z,15
2022-12-14T13:35:14.825Z,15
2022-12-14T13:36:14.697Z,10
2022-12-14T13:37:14.903Z,10
2022-12-14T13:38:14.874Z,10
2022-12-14T13:39:17.710Z,10
2022-12-14T13:40:14.895Z,10
2022-12-14T13:41:14.525Z,10
2022-12-14T13:42:14.970Z,10
2022-12-14T13:43:14.934Z,10
2022-12-14T13:44:17.711Z,10
2022-12-14T13:45:14.851Z,10
2022-12-14T13:46:15.239Z,10
2022-12-14T13:47:14.864Z,10
2022-12-14T13:48:15.207Z,10
2022-12-14T13:49:14.842Z,10
2022-12-14T13:51:04.839Z,5
2022-12-14T13:51:14.866Z,5
2022-12-14T13:52:14.842Z,5
2022-12-14T13:53:14.735Z,5
2022-12-14T13:54:14.822Z,5
2022-12-14T13:55:17.908Z,5
2022-12-14T13:56:14.850Z,5
2022-12-14T13:57:14.951Z,5
2022-12-14T13:58:14.893Z,5
2022-12-14T13:59:14.899Z,5
2022-12-14T14:00:14.960Z,5
2022-12-14T14:01:15.083Z,5
2022-12-14T14:02:22.137Z,5
2022-12-14T14:03:15.559Z,5
2022-12-14T14:04:15.879Z,5
2022-12-14T14:05:14.721Z,5
2022-12-14T14:06:17.657Z,5
2022-12-14T14:07:14.753Z,5
2022-12-14T14:08:14.948Z,5
2022-12-14T14:09:14.894Z,5
2022-12-14T14:10:15.058Z,5
2022-12-14T14:11:48.990Z,5
2022-12-14T14:12:14.992Z,5
2022-12-14T14:13:14.915Z,5
2022-12-14T14:14:14.934Z,5
2022-12-14T14:15:14.745Z,5
2022-12-14T14:16:37.961Z,5
2022-12-14T14:17:14.941Z,5
2022-12-14T14:18:14.902Z,5
2022-12-14T14:19:14.726Z,5
2022-12-14T14:20:14.909Z,5
2022-12-14T14:21:14.917Z,5
2022-12-14T14:22:44.927Z,5
2022-12-14T14:23:15.666Z,5
2022-12-14T14:24:14.905Z,5
2022-12-14T14:25:22.312Z,5
2022-12-14T14:26:19.608Z,5
2022-12-14T14:27:14.925Z,5
2022-12-14T14:28:23.127Z,5
2022-12-14T14:29:14.992Z,5
2022-12-14T14:30:14.919Z,5
2022-12-14T14:31:15.277Z,5
2022-12-14T14:32:14.922Z,5
2022-12-14T14:33:54.758Z,5
2022-12-14T14:34:21.785Z,5
2022-12-14T14:35:14.973Z,5
2022-12-14T14:36:17.696Z,5
2022-12-14T14:37:14.961Z,0
2022-12-14T14:38:17.709Z,0
2022-12-14T14:41:14.459Z,0
2022-12-14T14:41:27.536Z,0
2022-12-14T14:42:25.384Z,0
2022-12-14T14:43:24.320Z,0
2022-12-14T14:44:24.312Z,0
2022-12-14T14:46:31.732Z,0